createdAt,value
2022-10-02T00:02:54.129Z,3.60
2022-10-02T00:06:09.829Z,3.75
2022-10-02T00:09:24.532Z,2.53
2022-10-02T00:12:32.247Z,2.92
2022-10-02T00:15:41.191Z,2.95
2022-10-02T00:18:47.338Z,4.55
2022-10-02T00:22:08.100Z,5.88
2022-10-02T00:25:37.749Z,3.08
2022-10-02T00:28:49.509Z,2.20
2022-10-02T00:32:19.723Z,2.50
2022-10-02T00:36:01.767Z,4.55
2022-10-02T00:39:31.818Z,2.03
2022-10-02T00:43:01.629Z,1.95
2022-10-02T00:46:37.956Z,2.58
2022-10-02T00:50:29.237Z,1.30
2022-10-02T00:54:10.826Z,1.23
2022-10-02T00:58:03.113Z,1.33
2022-10-02T01:01:19.215Z,2.08
2022-10-02T01:04:43.967Z,2.03
2022-10-02T01:07:53.012Z,0.80
2022-10-02T01:10:57.643Z,2.78
2022-10-02T01:14:02.660Z,0.95
2022-10-02T01:17:33.115Z,1.67
2022-10-02T01:20:41.700Z,1.13
2022-10-02T01:24:08.772Z,2.90
2022-10-02T01:27:13.147Z,2.70
2022-10-02T01:30:19.965Z,2.50
2022-10-02T01:33:24.835Z,1.42
2022-10-02T01:36:30.728Z,1.63
2022-10-02T01:39:35.319Z,1.73
2022-10-02T01:42:40.636Z,1.63
2022-10-02T01:46:20.188Z,1.83
2022-10-02T01:50:09.419Z,1.77
2022-10-02T01:53:50.919Z,2.47
2022-10-02T01:57:25.389Z,1.20
2022-10-02T02:00:50.853Z,1.33
2022-10-02T02:04:16.855Z,1.40
2022-10-02T02:07:52.641Z,1.65
2022-10-02T02:11:03.383Z,1.27
2022-10-02T02:14:30.253Z,2.78
2022-10-02T02:17:54.873Z,4.60
2022-10-02T02:21:23.100Z,2.90
2022-10-02T02:24:37.058Z,3.05
2022-10-02T02:27:53.821Z,3.95
2022-10-02T02:31:00.598Z,3.70
2022-10-02T02:34:12.396Z,4.07
2022-10-02T02:37:21.443Z,3.15
2022-10-02T02:40:30.814Z,3.33
2022-10-02T02:44:02.688Z,5.38
2022-10-02T02:47:26.148Z,2.75
2022-10-02T02:50:37.681Z,3.42
2022-10-02T02:53:51.647Z,3.50
2022-10-02T02:56:58.682Z,3.63
2022-10-02T03:00:06.509Z,3.33
2022-10-02T03:03:11.135Z,3.95
2022-10-02T03:06:18.967Z,2.83
2022-10-02T03:09:26.115Z,4.85
2022-10-02T03:12:55.317Z,4.70
2022-10-02T03:16:39.697Z,4.00
2022-10-02T03:20:27.529Z,2.80
2022-10-02T03:23:58.424Z,2.88
2022-10-02T03:27:10.626Z,3.53
2022-10-02T03:30:20.575Z,3.13
2022-10-02T03:33:27.164Z,4.85
2022-10-02T03:36:32.639Z,5.65
2022-10-02T03:39:43.689Z,4.57
2022-10-02T03:42:48.397Z,3.15
2022-10-02T03:45:53.087Z,3.60
2022-10-02T03:48:57.949Z,4.38
2022-10-02T03:52:02.565Z,4.18
2022-10-02T03:55:42.009Z,3.22
2022-10-02T03:58:50.823Z,3.45
2022-10-02T04:01:58.132Z,3.97
2022-10-02T04:05:25.762Z,2.30
2022-10-02T04:09:00.945Z,4.55
2022-10-02T04:12:15.171Z,2.90
2022-10-02T04:15:58.444Z,2.65
2022-10-02T04:19:16.615Z,2.72
2022-10-02T04:22:41.658Z,3.95
2022-10-02T04:25:57.969Z,3.67
2022-10-02T04:29:20.636Z,5.22
2022-10-02T04:32:30.288Z,3.38
2022-10-02T04:35:58.100Z,4.05
2022-10-02T04:39:05.439Z,2.63
2022-10-02T04:42:50.220Z,5.30
2022-10-02T04:50:04.063Z,2.90
2022-10-02T04:53:56.045Z,4.13
2022-10-02T04:57:47.168Z,3.10
2022-10-02T05:01:26.710Z,3.38
2022-10-02T05:04:40.688Z,4.25
2022-10-02T05:11:57.760Z,4.40
2022-10-02T05:15:23.398Z,2.00
2022-10-02T05:19:12.871Z,2.83
2022-10-02T05:22:46.282Z,3.05
2022-10-02T05:26:14.340Z,2.55
2022-10-02T05:29:41.599Z,4.15
2022-10-02T05:33:22.634Z,2.88
2022-10-02T05:37:30.432Z,2.63
2022-10-02T05:40:48.288Z,2.95
2022-10-02T05:44:14.888Z,5.95
2022-10-02T05:47:35.453Z,2.95
2022-10-02T05:50:41.905Z,3.67
2022-10-02T05:54:13.042Z,3.25
2022-10-02T05:57:32.912Z,3.97
2022-10-02T06:00:52.282Z,4.00
2022-10-02T06:04:03.464Z,5.75
2022-10-02T06:07:13.685Z,4.38
2022-10-02T06:10:34.732Z,5.65
2022-10-02T06:14:33.925Z,3.65
2022-10-02T06:18:08.990Z,2.80
2022-10-02T06:21:42.496Z,4.15
2022-10-02T06:25:04.541Z,5.25
2022-10-02T06:28:25.480Z,3.67
2022-10-02T06:31:41.793Z,5.78
2022-10-02T06:34:48.305Z,4.00
2022-10-02T06:38:17.595Z,3.50
2022-10-02T06:41:47.386Z,4.25
2022-10-02T06:45:04.637Z,4.68
2022-10-02T06:48:40.701Z,3.80
2022-10-02T06:51:45.048Z,2.45
2022-10-02T06:55:31.094Z,2.55
2022-10-02T06:59:20.777Z,4.45
2022-10-02T07:02:38.041Z,3.80
2022-10-02T07:06:01.687Z,2.17
2022-10-02T07:09:21.028Z,4.70
2022-10-02T07:12:55.975Z,3.08
2022-10-02T07:16:39.225Z,3.65
2022-10-02T07:20:18.774Z,4.15
2022-10-02T07:24:09.381Z,3.78
2022-10-02T07:27:21.479Z,3.15
2022-10-02T07:30:37.588Z,2.85
2022-10-02T07:33:51.842Z,2.28
2022-10-02T07:37:22.765Z,4.10
2022-10-02T07:40:50.795Z,3.95
2022-10-02T07:44:33.212Z,2.45
2022-10-02T07:48:08.992Z,2.22
2022-10-02T07:51:47.400Z,3.08
2022-10-02T07:55:17.983Z,2.33
2022-10-02T07:58:41.829Z,2.53
2022-10-02T08:01:48.756Z,1.88
2022-10-02T08:05:00.819Z,2.58
2022-10-02T08:08:23.620Z,3.22
2022-10-02T08:11:50.265Z,2.33
2022-10-02T08:14:57.676Z,1.83
2022-10-02T08:18:34.148Z,3.67
2022-10-02T08:21:49.275Z,2.60
2022-10-02T08:25:04.676Z,3.15
2022-10-02T08:28:30.462Z,3.35
2022-10-02T08:31:35.329Z,2.40
2022-10-02T08:34:42.326Z,3.65
2022-10-02T08:38:14.406Z,3.05
2022-10-02T08:41:43.863Z,4.07
2022-10-02T08:45:26.117Z,4.13
2022-10-02T08:49:01.957Z,4.57
2022-10-02T08:53:02.008Z,3.13
2022-10-02T08:56:46.766Z,3.78
2022-10-02T09:00:17.634Z,3.33
2022-10-02T09:04:14.681Z,4.05
2022-10-02T09:08:08.002Z,3.58
2022-10-02T09:11:52.156Z,3.08
2022-10-02T09:18:26.077Z,4.68
2022-10-02T09:21:52.802Z,4.22
2022-10-02T09:25:24.576Z,3.58
2022-10-02T09:28:51.689Z,4.80
2022-10-02T09:32:27.670Z,4.25
2022-10-02T09:36:12.123Z,2.00
2022-10-02T09:40:05.709Z,3.78
2022-10-02T09:47:25.218Z,1.50
2022-10-02T09:50:45.323Z,2.97
2022-10-02T09:54:21.603Z,3.47
2022-10-02T09:58:03.797Z,4.20
2022-10-02T10:01:40.696Z,3.58
2022-10-02T10:05:32.887Z,1.92
2022-10-02T10:08:55.333Z,3.90
2022-10-02T10:12:43.966Z,3.47
2022-10-02T10:16:11.571Z,2.58
2022-10-02T10:19:53.037Z,2.78
2022-10-02T10:23:25.139Z,2.13
2022-10-02T10:27:00.507Z,1.98
2022-10-02T10:30:33.052Z,2.33
2022-10-02T10:33:46.391Z,2.75
2022-10-02T10:40:57.533Z,2.85
2022-10-02T10:44:56.418Z,2.53
2022-10-02T10:48:19.571Z,3.40
2022-10-02T10:51:59.392Z,2.70
2022-10-02T10:55:52.327Z,1.77
2022-10-02T10:59:42.265Z,1.90
2022-10-02T11:04:08.984Z,2.20
2022-10-02T11:07:41.516Z,5.05
2022-10-02T11:11:20.681Z,1.98
2022-10-02T11:15:13.358Z,3.40
2022-10-02T11:19:05.526Z,3.65
2022-10-02T11:22:44.684Z,1.90
2022-10-02T11:25:55.187Z,3.00
2022-10-02T11:29:34.237Z,3.15
2022-10-02T11:33:23.771Z,3.13
2022-10-02T11:36:50.673Z,2.97
2022-10-02T11:40:34.252Z,2.75
2022-10-02T11:44:20.977Z,4.18
2022-10-02T11:48:09.234Z,3.22
2022-10-02T11:51:54.009Z,2.47
2022-10-02T11:55:46.216Z,2.15
2022-10-02T11:59:39.424Z,2.78
2022-10-02T12:03:02.176Z,3.35
2022-10-02T12:06:28.545Z,2.55
2022-10-02T12:09:57.087Z,2.40
2022-10-02T12:13:28.080Z,4.78
2022-10-02T12:17:04.548Z,3.25
2022-10-02T12:20:49.870Z,4.63
2022-10-02T12:24:29.455Z,3.10
2022-10-02T12:28:14.042Z,1.75
2022-10-02T12:35:29.680Z,2.33
2022-10-02T12:39:21.771Z,3.13
2022-10-02T12:43:10.124Z,3.05
2022-10-02T12:46:46.642Z,3.80
2022-10-02T12:50:24.485Z,2.22
2022-10-02T12:54:08.650Z,3.25
2022-10-02T12:57:58.808Z,1.77
2022-10-02T13:01:15.138Z,1.48
2022-10-02T13:04:43.946Z,1.92
2022-10-02T13:08:09.407Z,1.92
2022-10-02T13:11:22.766Z,2.25
2022-10-02T13:18:26.191Z,2.58
2022-10-02T13:21:49.946Z,1.67
2022-10-02T13:25:16.306Z,2.67
2022-10-02T13:28:36.540Z,3.03
2022-10-02T13:32:06.062Z,3.03
2022-10-02T13:35:52.270Z,2.80
2022-10-02T13:39:07.079Z,2.40
2022-10-02T13:42:56.830Z,3.78
2022-10-02T13:46:45.259Z,1.85
2022-10-02T13:50:46.528Z,3.13
2022-10-02T13:54:38.437Z,1.98
2022-10-02T13:58:35.030Z,0.88
2022-10-02T14:02:14.656Z,2.08
2022-10-02T14:05:42.737Z,2.13
2022-10-02T14:09:02.357Z,2.72
2022-10-02T14:12:28.069Z,5.32
2022-10-02T14:16:01.375Z,3.08
2022-10-02T14:19:33.823Z,3.07
2022-10-02T14:23:05.209Z,3.08
2022-10-02T14:26:46.738Z,3.40
2022-10-02T14:30:16.321Z,4.28
2022-10-02T14:33:48.600Z,3.88
2022-10-02T14:37:34.534Z,5.32
2022-10-02T14:40:55.974Z,3.95
2022-10-02T14:44:17.530Z,4.13
2022-10-02T14:47:39.162Z,6.35
2022-10-02T14:51:25.653Z,6.13
2022-10-02T14:54:45.211Z,5.38
2022-10-02T14:59:09.828Z,4.07
2022-10-02T15:02:20.451Z,4.65
2022-10-02T15:05:49.026Z,3.85
2022-10-02T15:09:03.012Z,4.65
2022-10-02T15:13:01.018Z,3.30
2022-10-02T15:16:45.959Z,3.15
2022-10-02T15:20:34.563Z,2.55
2022-10-02T15:23:50.409Z,4.35
2022-10-02T15:27:24.671Z,3.58
2022-10-02T15:30:30.474Z,2.08
2022-10-02T15:34:08.039Z,2.85
2022-10-02T15:37:40.034Z,2.72
2022-10-02T15:41:12.816Z,1.77
2022-10-02T15:45:16.891Z,1.90
2022-10-02T15:48:56.052Z,3.27
2022-10-02T15:52:25.131Z,3.00
2022-10-02T15:55:45.801Z,2.65
2022-10-02T15:59:33.536Z,3.88
2022-10-02T16:02:58.250Z,3.80
2022-10-02T16:06:53.537Z,2.25
2022-10-02T16:10:26.212Z,4.18
2022-10-02T16:14:05.991Z,2.30
2022-10-02T16:17:28.670Z,4.35
2022-10-02T16:21:44.350Z,5.55
2022-10-02T16:25:21.467Z,4.97
2022-10-02T16:28:51.882Z,3.17
2022-10-02T16:32:41.911Z,4.65
2022-10-02T16:36:34.373Z,3.40
2022-10-02T16:39:55.026Z,2.50
2022-10-02T16:43:41.391Z,2.22
2022-10-02T16:47:04.680Z,2.72
2022-10-02T16:50:12.209Z,3.20
2022-10-02T16:53:32.579Z,6.13
2022-10-02T16:56:59.310Z,12.40
2022-10-02T17:00:37.239Z,13.25
2022-10-02T17:04:22.479Z,15.43
2022-10-02T17:08:03.424Z,15.05
2022-10-02T17:11:29.914Z,11.10
2022-10-02T17:14:48.872Z,7.78
2022-10-02T17:18:03.098Z,6.25
2022-10-02T17:25:13.448Z,4.93
2022-10-02T17:28:48.757Z,3.72
2022-10-02T17:31:57.693Z,4.22
2022-10-02T17:35:02.731Z,3.72
2022-10-02T17:38:25.225Z,3.58
2022-10-02T17:42:10.586Z,3.35
2022-10-02T17:45:15.209Z,2.53
2022-10-02T17:49:01.630Z,3.58
2022-10-02T17:52:33.803Z,1.77
2022-10-02T17:56:22.585Z,4.15
2022-10-02T18:00:04.214Z,2.28
2022-10-02T18:03:31.208Z,1.55
2022-10-02T18:07:26.945Z,1.23
2022-10-02T18:11:03.105Z,6.53
2022-10-02T18:14:40.278Z,9.90
2022-10-02T18:18:29.567Z,11.57
2022-10-02T18:22:16.287Z,11.15
2022-10-02T18:26:06.358Z,10.45
2022-10-02T18:29:49.228Z,7.60
2022-10-02T18:33:33.071Z,5.93
2022-10-02T18:37:09.807Z,6.28
2022-10-02T18:40:56.019Z,4.65
2022-10-02T18:44:27.149Z,4.10
2022-10-02T18:47:53.579Z,3.35
2022-10-02T18:51:59.855Z,4.47
2022-10-02T18:55:47.149Z,2.95
2022-10-02T18:59:07.405Z,2.78
2022-10-02T19:03:16.932Z,4.88
2022-10-02T19:06:32.334Z,3.10
2022-10-02T19:09:37.012Z,2.40
2022-10-02T19:12:44.503Z,1.98
2022-10-02T19:15:53.195Z,2.72
2022-10-02T19:19:20.307Z,2.72
2022-10-02T19:22:36.617Z,3.13
2022-10-02T19:25:47.718Z,2.22
2022-10-02T19:29:00.472Z,2.00
2022-10-02T19:32:18.498Z,1.70
2022-10-02T19:35:32.364Z,2.00
2022-10-02T19:38:39.440Z,3.75
2022-10-02T19:41:44.687Z,1.33
2022-10-02T19:45:15.633Z,2.03
2022-10-02T19:48:20.520Z,2.78
2022-10-02T19:51:25.846Z,2.33
2022-10-02T19:54:37.969Z,2.53
2022-10-02T19:57:44.016Z,2.58
2022-10-02T20:00:53.780Z,3.30
2022-10-02T20:04:01.128Z,2.85
2022-10-02T20:07:05.786Z,1.75
2022-10-02T20:10:36.713Z,2.22
2022-10-02T20:13:53.186Z,4.97
2022-10-02T20:17:09.494Z,1.20
2022-10-02T20:20:16.618Z,2.60
2022-10-02T20:23:29.571Z,2.63
2022-10-02T20:26:39.890Z,2.20
2022-10-02T20:29:52.672Z,1.13
2022-10-02T20:33:31.243Z,1.85
2022-10-02T20:36:47.971Z,2.53
2022-10-02T20:40:21.648Z,2.47
2022-10-02T20:43:36.898Z,1.50
2022-10-02T20:46:48.023Z,2.47
2022-10-02T20:50:07.615Z,2.20
2022-10-02T20:54:05.023Z,3.22
2022-10-02T20:57:20.806Z,3.90
2022-10-02T21:00:28.826Z,2.17
2022-10-02T21:04:26.624Z,1.65
2022-10-02T21:07:48.194Z,4.13
2022-10-02T21:11:13.412Z,1.52
2022-10-02T21:14:53.276Z,2.10
2022-10-02T21:18:29.072Z,3.03
2022-10-02T21:22:04.129Z,2.25
2022-10-02T21:25:38.887Z,1.17
2022-10-02T21:29:25.220Z,1.17
2022-10-02T21:32:45.674Z,2.35
2022-10-02T21:35:57.460Z,3.00
2022-10-02T21:39:45.629Z,2.00
2022-10-02T21:43:17.860Z,2.55
2022-10-02T21:47:05.832Z,2.70
2022-10-02T21:50:45.765Z,1.30
2022-10-02T21:54:15.707Z,0.98
2022-10-02T21:57:57.120Z,1.08
2022-10-02T22:02:08.332Z,1.50
2022-10-02T22:05:31.820Z,1.63
2022-10-02T22:09:18.275Z,1.60
2022-10-02T22:13:01.759Z,3.65
2022-10-02T22:16:46.300Z,1.65
2022-10-02T22:20:16.115Z,2.55
2022-10-02T22:24:09.002Z,2.80
2022-10-02T22:27:42.096Z,1.35
2022-10-02T22:30:55.313Z,1.33
2022-10-02T22:34:44.890Z,2.80
2022-10-02T22:38:16.636Z,2.00
2022-10-02T22:41:50.009Z,1.27
2022-10-02T22:45:15.194Z,1.58
2022-10-02T22:48:44.304Z,1.58
2022-10-02T22:52:22.731Z,2.40
2022-10-02T22:55:56.613Z,1.33
2022-10-02T22:59:25.769Z,1.92
2022-10-02T23:03:16.067Z,4.60
2022-10-02T23:06:55.702Z,1.13
2022-10-02T23:10:49.278Z,2.58
2022-10-02T23:14:02.735Z,1.13
2022-10-02T23:17:34.245Z,2.33
2022-10-02T23:20:50.100Z,1.85
2022-10-02T23:24:00.707Z,2.80
2022-10-02T23:27:13.393Z,3.72
2022-10-02T23:30:21.334Z,0.77
2022-10-02T23:33:36.939Z,2.28
2022-10-02T23:36:52.857Z,2.58
2022-10-02T23:41:02.381Z,1.63
2022-10-02T23:44:37.015Z,1.92
2022-10-02T23:47:58.747Z,0.93
2022-10-02T23:51:23.380Z,1.35
2022-10-02T23:54:34.093Z,1.33
2022-10-02T23:58:13.608Z,3.10
